createdAt,value
2022-09-26T07:49:48.886Z,4.47
2022-09-26T08:00:15.185Z,4.68
2022-09-26T08:10:32.247Z,4.97
2022-09-26T08:20:53.587Z,5.57
2022-09-26T08:30:59.561Z,6.90
2022-09-26T08:41:17.084Z,5.88
2022-09-26T08:51:50.194Z,5.95
2022-09-26T09:01:55.064Z,5.30
2022-09-26T09:12:22.994Z,5.10
2022-09-26T09:23:08.661Z,3.90
2022-09-26T09:33:18.564Z,4.32
2022-09-26T09:43:40.501Z,3.13
2022-09-26T09:53:55.543Z,2.50
2022-09-26T10:04:05.793Z,1.80
2022-09-26T10:14:18.087Z,1.27
2022-09-26T10:24:46.404Z,1.20
2022-09-26T10:35:23.522Z,1.00
2022-09-26T10:45:32.684Z,1.38
2022-09-26T10:56:04.905Z,1.30
2022-09-26T11:06:24.229Z,1.08
2022-09-26T11:16:34.899Z,0.85
2022-09-26T11:26:51.759Z,1.25
2022-09-26T11:37:33.457Z,0.85
2022-09-26T11:48:01.781Z,0.90
2022-09-26T11:58:25.972Z,0.93
2022-09-26T12:08:31.944Z,1.00
2022-09-26T12:18:57.849Z,1.25
2022-09-26T12:29:11.783Z,0.85
2022-09-26T12:39:40.881Z,1.08
2022-09-26T12:50:13.060Z,0.80
2022-09-26T13:00:28.284Z,1.00
2022-09-26T13:10:52.560Z,1.00
2022-09-26T13:21:03.117Z,0.60
2022-09-26T13:31:32.438Z,0.95
2022-09-26T13:41:45.840Z,0.65
2022-09-26T13:51:56.658Z,0.80
2022-09-26T14:02:21.632Z,1.00
2022-09-26T14:12:36.983Z,0.70
2022-09-26T14:22:42.868Z,0.80
2022-09-26T14:32:49.664Z,1.02
2022-09-26T14:43:16.005Z,1.15
2022-09-26T14:53:40.442Z,1.20
2022-09-26T15:03:42.841Z,0.88
2022-09-26T15:13:50.423Z,1.33
2022-09-26T15:34:03.681Z,1.40
2022-09-26T15:44:06.439Z,0.90
2022-09-26T15:54:20.306Z,0.85
2022-09-26T16:04:31.526Z,1.00
2022-09-26T16:14:48.704Z,1.20
2022-09-26T16:24:51.622Z,1.10
2022-09-26T16:34:53.682Z,1.20
2022-09-26T16:44:59.397Z,1.10
2022-09-26T16:55:02.982Z,1.20
2022-09-26T17:05:04.363Z,1.30
2022-09-26T17:15:08.606Z,1.10
2022-09-26T17:25:15.922Z,1.52
2022-09-26T17:35:22.900Z,1.40
2022-09-26T17:45:35.403Z,1.73
2022-09-26T17:55:37.561Z,2.10
2022-09-26T18:05:41.658Z,1.70
2022-09-26T18:15:43.607Z,1.40
2022-09-26T18:25:50.242Z,2.08
2022-09-26T18:35:53.600Z,1.77
2022-09-26T18:45:55.177Z,1.73
2022-09-26T18:56:15.381Z,2.30
2022-09-26T19:06:32.544Z,1.77
2022-09-26T19:16:34.701Z,3.33
2022-09-26T19:26:43.602Z,1.33
2022-09-26T19:36:45.642Z,1.65
2022-09-26T19:46:49.463Z,1.13
2022-09-26T19:56:52.321Z,1.05
2022-09-26T20:06:54.701Z,1.15
2022-09-26T20:17:01.433Z,0.88
2022-09-26T20:27:06.144Z,1.17
2022-09-26T20:37:07.617Z,0.90
2022-09-26T20:47:09.445Z,1.08
2022-09-26T20:57:11.582Z,1.63
2022-09-26T21:07:17.720Z,1.65
2022-09-26T21:17:24.380Z,1.75
2022-09-26T21:27:26.559Z,1.23
2022-09-26T21:37:28.258Z,1.02
2022-09-26T21:47:29.982Z,3.30
2022-09-26T21:57:43.438Z,0.70
2022-09-26T22:07:46.177Z,0.82
2022-09-26T22:17:48.740Z,1.25
2022-09-26T22:27:51.043Z,0.80
2022-09-26T22:37:52.643Z,1.00
2022-09-26T22:47:54.119Z,0.90
2022-09-26T22:57:55.735Z,1.17
2022-09-26T23:07:57.398Z,1.30
2022-09-26T23:17:59.175Z,1.00
2022-09-26T23:28:01.480Z,1.17
2022-09-26T23:38:05.254Z,1.40
2022-09-26T23:48:07.560Z,1.23
2022-09-26T23:58:08.929Z,1.05
